sensor_id;sensor_type;location;lat;lon;timestamp;temperature;humidity
11583;DHT22;34299;50.820;4.548;2023-08-07T06:32:33;19.20;99.90
11583;DHT22;34299;50.820;4.548;2023-08-07T06:35:01;12.90;99.90
11583;DHT22;34299;50.820;4.548;2023-08-07T06:37:28;12.90;99.90
11583;DHT22;34299;50.820;4.548;2023-08-07T06:39:56;13.00;99.90
11583;DHT22;34299;50.820;4.548;2023-08-07T06:42:23;13.10;99.90
11583;DHT22;34299;50.820;4.548;2023-08-07T08:18:32;13.20;99.90
11583;DHT22;34299;50.820;4.548;2023-08-07T08:20:59;15.80;99.90
11583;DHT22;34299;50.820;4.548;2023-08-07T08:23:28;15.90;99.90
11583;DHT22;34299;50.820;4.548;2023-08-07T11:29:02;16.00;99.90
11583;DHT22;34299;50.820;4.548;2023-08-07T11:31:31;20.30;99.90
11583;DHT22;34299;50.820;4.548;2023-08-07T11:34:00;20.40;99.90
11583;DHT22;34299;50.820;4.548;2023-08-07T11:36:28;20.70;99.90
11583;DHT22;34299;50.820;4.548;2023-08-07T11:38:57;20.90;99.90
11583;DHT22;34299;50.820;4.548;2023-08-07T11:41:24;20.90;99.90
11583;DHT22;34299;50.820;4.548;2023-08-07T11:43:51;20.50;99.90
11583;DHT22;34299;50.820;4.548;2023-08-07T11:46:18;20.00;99.90
11583;DHT22;34299;50.820;4.548;2023-08-07T11:48:49;20.40;99.90
11583;DHT22;34299;50.820;4.548;2023-08-07T11:51:20;20.50;99.90
11583;DHT22;34299;50.820;4.548;2023-08-07T11:53:48;20.30;99.90
11583;DHT22;34299;50.820;4.548;2023-08-07T13:00:29;20.20;99.90
11583;DHT22;34299;50.820;4.548;2023-08-07T13:30:06;20.70;99.90
11583;DHT22;34299;50.820;4.548;2023-08-07T13:32:35;23.20;99.90
11583;DHT22;34299;50.820;4.548;2023-08-07T13:35:03;23.20;99.90
11583;DHT22;34299;50.820;4.548;2023-08-07T13:37:30;23.00;99.90
11583;DHT22;34299;50.820;4.548;2023-08-07T13:44:55;22.80;99.90
11583;DHT22;34299;50.820;4.548;2023-08-07T13:47:22;23.00;99.90
11583;DHT22;34299;50.820;4.548;2023-08-07T13:52:20;23.40;99.90
11583;DHT22;34299;50.820;4.548;2023-08-07T13:54:47;23.50;99.90
11583;DHT22;34299;50.820;4.548;2023-08-07T13:57:14;22.90;99.90
11583;DHT22;34299;50.820;4.548;2023-08-07T13:59:42;22.50;99.90
11583;DHT22;34299;50.820;4.548;2023-08-07T14:02:11;22.80;99.90
11583;DHT22;34299;50.820;4.548;2023-08-07T14:04:40;23.60;99.90
11583;DHT22;34299;50.820;4.548;2023-08-07T14:07:12;24.20;99.90
11583;DHT22;34299;50.820;4.548;2023-08-07T14:09:39;24.40;99.90
11583;DHT22;34299;50.820;4.548;2023-08-07T14:12:07;24.60;99.90
11583;DHT22;34299;50.820;4.548;2023-08-07T14:14:35;24.60;99.90
11583;DHT22;34299;50.820;4.548;2023-08-07T14:21:57;24.90;99.90
11583;DHT22;34299;50.820;4.548;2023-08-07T14:24:25;24.90;99.90
11583;DHT22;34299;50.820;4.548;2023-08-07T14:26:52;24.10;99.90
11583;DHT22;34299;50.820;4.548;2023-08-07T14:29:19;23.90;99.90
11583;DHT22;34299;50.820;4.548;2023-08-07T14:31:46;24.00;99.90
11583;DHT22;34299;50.820;4.548;2023-08-07T15:03:52;23.80;99.90
11583;DHT22;34299;50.820;4.548;2023-08-07T15:06:19;26.90;99.90
11583;DHT22;34299;50.820;4.548;2023-08-07T15:08:47;28.10;99.90
11583;DHT22;34299;50.820;4.548;2023-08-07T15:11:14;28.50;99.90
11583;DHT22;34299;50.820;4.548;2023-08-07T15:13:41;27.90;99.90
11583;DHT22;34299;50.820;4.548;2023-08-07T15:16:10;27.20;99.90
11583;DHT22;34299;50.820;4.548;2023-08-07T15:30:57;27.60;99.90
11583;DHT22;34299;50.820;4.548;2023-08-07T15:33:26;28.60;98.90
11583;DHT22;34299;50.820;4.548;2023-08-07T15:38:25;27.90;99.90
11583;DHT22;34299;50.820;4.548;2023-08-07T15:40:53;26.30;99.40
11583;DHT22;34299;50.820;4.548;2023-08-07T15:43:23;26.00;99.90
11583;DHT22;34299;50.820;4.548;2023-08-07T15:45:51;26.10;99.90
11583;DHT22;34299;50.820;4.548;2023-08-07T15:50:50;26.10;99.90
11583;DHT22;34299;50.820;4.548;2023-08-07T16:15:41;27.60;99.90
11583;DHT22;34299;50.820;4.548;2023-08-07T16:18:08;28.70;98.10
11583;DHT22;34299;50.820;4.548;2023-08-07T18:15:32;21.40;99.90
11583;DHT22;34299;50.820;4.548;2023-08-07T18:18:13;20.70;99.90
11583;DHT22;34299;50.820;4.548;2023-08-07T18:20:40;20.40;99.90
11583;DHT22;34299;50.820;4.548;2023-08-07T18:23:08;20.30;99.90
11583;DHT22;34299;50.820;4.548;2023-08-07T18:25:35;20.10;99.90
11583;DHT22;34299;50.820;4.548;2023-08-07T18:28:02;20.00;99.90
11583;DHT22;34299;50.820;4.548;2023-08-07T18:30:29;19.80;99.90
11583;DHT22;34299;50.820;4.548;2023-08-07T18:32:56;19.60;99.90
11583;DHT22;34299;50.820;4.548;2023-08-07T18:35:25;19.40;99.90
11583;DHT22;34299;50.820;4.548;2023-08-07T18:37:52;19.30;99.90
11583;DHT22;34299;50.820;4.548;2023-08-07T18:40:19;19.20;99.90
11583;DHT22;34299;50.820;4.548;2023-08-07T18:42:46;19.10;99.90
11583;DHT22;34299;50.820;4.548;2023-08-07T18:45:13;19.00;99.90
11583;DHT22;34299;50.820;4.548;2023-08-07T18:47:40;18.80;99.90
11583;DHT22;34299;50.820;4.548;2023-08-07T18:50:08;18.70;99.90
11583;DHT22;34299;50.820;4.548;2023-08-07T18:52:36;18.70;99.90
11583;DHT22;34299;50.820;4.548;2023-08-07T18:55:04;18.60;99.90
11583;DHT22;34299;50.820;4.548;2023-08-07T18:57:31;18.30;99.90
11583;DHT22;34299;50.820;4.548;2023-08-07T18:59:58;18.40;99.90
11583;DHT22;34299;50.820;4.548;2023-08-07T19:02:25;18.40;99.90
11583;DHT22;34299;50.820;4.548;2023-08-07T19:04:52;18.40;99.90
11583;DHT22;34299;50.820;4.548;2023-08-07T19:07:19;18.10;99.90
11583;DHT22;34299;50.820;4.548;2023-08-07T19:09:48;18.00;99.90
11583;DHT22;34299;50.820;4.548;2023-08-07T19:12:15;17.90;99.90
11583;DHT22;34299;50.820;4.548;2023-08-07T19:14:42;17.90;99.90
11583;DHT22;34299;50.820;4.548;2023-08-07T19:17:09;17.80;99.90
11583;DHT22;34299;50.820;4.548;2023-08-07T19:19:36;17.80;99.90
11583;DHT22;34299;50.820;4.548;2023-08-07T19:22:03;17.70;99.90
11583;DHT22;34299;50.820;4.548;2023-08-07T19:24:30;17.70;99.90
